createdAt,value
2022-10-21T00:03:27.129Z,50.68
2022-10-21T00:08:29.110Z,50.76
2022-10-21T00:13:33.675Z,50.71
2022-10-21T00:18:37.730Z,50.83
2022-10-21T00:23:40.831Z,50.97
2022-10-21T00:28:43.446Z,51.12
2022-10-21T00:33:45.124Z,51.15
2022-10-21T00:38:48.577Z,51.33
2022-10-21T00:44:02.281Z,51.40
2022-10-21T00:49:39.624Z,51.31
2022-10-21T00:54:43.196Z,51.52
2022-10-21T00:59:49.574Z,51.31
2022-10-21T01:04:54.725Z,51.02
2022-10-21T01:09:56.497Z,51.11
2022-10-21T01:15:21.950Z,51.18
2022-10-21T01:20:41.921Z,51.09
2022-10-21T01:26:19.483Z,51.18
2022-10-21T01:31:48.138Z,51.11
2022-10-21T01:37:13.586Z,50.88
2022-10-21T01:42:20.527Z,50.99
2022-10-21T01:47:32.257Z,51.21
2022-10-21T01:52:35.049Z,51.40
2022-10-21T01:57:43.910Z,51.44
2022-10-21T02:02:49.914Z,51.46
2022-10-21T02:07:51.986Z,51.65
2022-10-21T02:12:56.965Z,51.66
2022-10-21T02:18:08.595Z,51.56
2022-10-21T02:23:15.333Z,51.44
2022-10-21T02:28:18.884Z,51.52
2022-10-21T02:33:27.890Z,51.67
2022-10-21T02:38:46.755Z,51.64
2022-10-21T02:43:59.233Z,51.75
2022-10-21T02:49:00.991Z,51.78
2022-10-21T02:54:02.713Z,51.54
2022-10-21T02:59:04.343Z,51.67
2022-10-21T03:04:07.550Z,52.10
2022-10-21T03:09:09.528Z,51.72
2022-10-21T03:14:11.594Z,51.90
2022-10-21T03:19:13.717Z,51.97
2022-10-21T03:24:27.914Z,51.92
2022-10-21T03:29:30.608Z,52.37
2022-10-21T03:34:32.240Z,52.19
2022-10-21T03:39:33.944Z,52.16
2022-10-21T03:44:36.018Z,52.33
2022-10-21T03:49:37.795Z,52.41
2022-10-21T03:54:39.483Z,52.30
2022-10-21T03:59:41.351Z,52.26
2022-10-21T04:04:42.974Z,52.43
2022-10-21T04:09:44.630Z,52.43
2022-10-21T04:14:46.238Z,52.79
2022-10-21T04:19:48.058Z,52.55
2022-10-21T04:24:49.933Z,52.55
2022-10-21T04:29:51.566Z,52.71
2022-10-21T04:34:53.329Z,52.66
2022-10-21T04:39:57.410Z,52.86
2022-10-21T04:44:59.210Z,52.32
2022-10-21T04:50:00.819Z,52.42
2022-10-21T04:55:02.592Z,52.66
2022-10-21T05:00:07.503Z,52.58
2022-10-21T05:05:10.588Z,52.55
2022-10-21T05:10:12.254Z,52.29
2022-10-21T05:15:14.647Z,52.29
2022-10-21T05:20:16.575Z,52.71
2022-10-21T05:25:18.454Z,52.67
2022-10-21T05:30:20.072Z,52.58
2022-10-21T05:35:22.105Z,52.82
2022-10-21T05:40:24.194Z,52.96
2022-10-21T05:45:27.070Z,53.02
2022-10-21T05:50:28.719Z,52.86
2022-10-21T05:55:30.466Z,53.00
2022-10-21T06:00:32.510Z,53.14
2022-10-21T06:05:35.232Z,53.02
2022-10-21T06:10:36.988Z,52.78
2022-10-21T06:15:38.647Z,52.82
2022-10-21T06:20:40.254Z,53.10
2022-10-21T06:25:44.169Z,52.97
2022-10-21T06:30:47.407Z,52.99
2022-10-21T06:35:49.261Z,52.92
2022-10-21T06:40:50.865Z,52.99
2022-10-21T06:45:58.631Z,53.56
2022-10-21T06:51:09.560Z,53.18
2022-10-21T06:56:17.189Z,53.00
2022-10-21T07:01:34.897Z,53.00
2022-10-21T07:06:43.422Z,52.95
2022-10-21T07:11:45.008Z,53.18
2022-10-21T07:16:49.076Z,53.34
2022-10-21T07:21:50.895Z,53.24
2022-10-21T07:26:52.972Z,53.17
2022-10-21T07:31:54.564Z,53.33
2022-10-21T07:36:56.335Z,53.34
2022-10-21T07:41:58.420Z,53.39
2022-10-21T07:47:00.106Z,53.15
2022-10-21T07:52:02.662Z,53.24
2022-10-21T07:57:04.350Z,53.14
2022-10-21T08:02:06.143Z,53.09
2022-10-21T08:07:10.306Z,53.01
2022-10-21T08:12:15.487Z,52.98
2022-10-21T08:17:17.539Z,53.10
2022-10-21T08:22:19.775Z,53.21
2022-10-21T08:27:21.388Z,53.03
2022-10-21T08:32:23.127Z,52.84
2022-10-21T08:37:25.756Z,52.58
2022-10-21T08:42:27.984Z,52.34
2022-10-21T08:47:45.922Z,52.53
2022-10-21T08:53:13.760Z,52.56
2022-10-21T08:58:21.823Z,52.60
2022-10-21T09:03:39.151Z,52.76
2022-10-21T09:08:57.435Z,52.82
2022-10-21T09:14:24.528Z,52.50
2022-10-21T09:19:43.501Z,52.52
2022-10-21T09:25:17.600Z,52.50
2022-10-21T09:30:24.535Z,52.42
2022-10-21T09:35:48.387Z,52.00
2022-10-21T09:40:59.299Z,52.09
2022-10-21T09:46:00.999Z,52.06
2022-10-21T09:51:14.074Z,51.78
2022-10-21T09:56:24.802Z,51.80
2022-10-21T10:01:29.362Z,52.15
2022-10-21T10:06:42.666Z,52.12
2022-10-21T10:12:02.850Z,52.14
2022-10-21T10:17:31.912Z,52.40
2022-10-21T10:22:38.906Z,52.26
2022-10-21T10:27:59.816Z,52.28
2022-10-21T10:33:14.084Z,52.68
2022-10-21T10:38:42.571Z,52.61
2022-10-21T10:43:46.351Z,53.03
2022-10-21T10:48:52.689Z,53.23
2022-10-21T10:54:06.522Z,53.31
2022-10-21T10:59:23.562Z,53.29
2022-10-21T11:10:02.037Z,52.94
2022-10-21T11:15:04.045Z,52.91
2022-10-21T11:20:15.785Z,53.06
2022-10-21T11:25:26.992Z,53.06
2022-10-21T11:30:36.967Z,52.92
2022-10-21T11:35:59.010Z,52.93
2022-10-21T11:41:31.769Z,52.70
2022-10-21T11:46:46.904Z,52.82
2022-10-21T11:51:48.568Z,52.74
2022-10-21T11:57:41.459Z,52.69
2022-10-21T12:03:23.736Z,52.69
2022-10-21T12:08:31.067Z,52.94
2022-10-21T12:13:38.084Z,52.83
2022-10-21T12:18:44.550Z,52.61
2022-10-21T12:23:54.047Z,52.37
2022-10-21T12:29:07.378Z,52.41
2022-10-21T12:34:11.498Z,52.51
2022-10-21T12:39:35.212Z,52.53
2022-10-21T12:44:38.150Z,52.67
2022-10-21T12:49:43.600Z,52.93
2022-10-21T12:54:58.249Z,52.86
2022-10-21T13:00:28.405Z,53.10
2022-10-21T13:05:36.517Z,53.04
2022-10-21T13:10:40.565Z,53.01
2022-10-21T13:15:46.241Z,53.07
2022-10-21T13:20:57.136Z,52.95
2022-10-21T13:26:12.334Z,53.13
2022-10-21T13:31:21.192Z,53.01
2022-10-21T13:41:43.448Z,52.67
2022-10-21T13:46:45.058Z,52.67
2022-10-21T13:51:47.097Z,52.67
2022-10-21T13:56:48.826Z,52.74
2022-10-21T14:01:53.346Z,52.79
2022-10-21T14:07:05.647Z,52.62
2022-10-21T14:12:18.249Z,52.75
2022-10-21T14:17:26.207Z,52.84
2022-10-21T14:22:31.093Z,52.75
2022-10-21T14:27:35.037Z,52.78
2022-10-21T14:32:37.661Z,52.79
2022-10-21T14:37:49.581Z,52.76
2022-10-21T14:42:53.322Z,52.65
2022-10-21T14:48:24.041Z,52.73
2022-10-21T14:53:27.841Z,52.77
2022-10-21T14:58:34.626Z,52.72
2022-10-21T15:03:58.156Z,52.63
2022-10-21T15:09:10.476Z,52.75
2022-10-21T15:14:21.007Z,52.89
2022-10-21T15:19:40.621Z,53.24
2022-10-21T15:24:45.144Z,53.43
2022-10-21T15:29:48.754Z,53.38
2022-10-21T15:34:52.081Z,53.74
2022-10-21T15:39:53.673Z,53.65
2022-10-21T15:44:55.340Z,53.77
2022-10-21T15:49:58.330Z,53.69
2022-10-21T15:55:00.094Z,53.72
2022-10-21T16:00:02.242Z,53.45
2022-10-21T16:05:06.390Z,53.75
2022-10-21T16:10:22.405Z,53.65
2022-10-21T16:15:25.134Z,53.88
2022-10-21T16:20:30.249Z,53.78
2022-10-21T16:25:33.486Z,54.17
2022-10-21T16:30:37.521Z,54.01
2022-10-21T16:35:39.152Z,54.18
2022-10-21T16:40:40.921Z,54.02
2022-10-21T16:45:43.998Z,54.02
2022-10-21T16:50:46.479Z,53.97
2022-10-21T16:55:48.371Z,53.90
2022-10-21T17:00:50.954Z,54.18
2022-10-21T17:05:52.679Z,54.41
2022-10-21T17:10:55.065Z,54.28
2022-10-21T17:15:56.654Z,54.58
2022-10-21T17:20:58.451Z,54.54
2022-10-21T17:26:00.194Z,54.69
2022-10-21T17:31:01.911Z,54.62
2022-10-21T17:36:03.763Z,54.71
2022-10-21T17:41:06.184Z,54.90
2022-10-21T17:46:09.932Z,54.82
2022-10-21T17:51:11.723Z,54.82
2022-10-21T17:56:13.553Z,54.76
2022-10-21T18:01:15.264Z,54.68
2022-10-21T18:06:17.088Z,55.13
2022-10-21T18:11:20.618Z,54.63
2022-10-21T18:16:23.767Z,54.46
2022-10-21T18:21:25.600Z,54.45
2022-10-21T18:26:30.716Z,54.38
2022-10-21T18:31:35.551Z,54.40
2022-10-21T18:36:37.411Z,54.51
2022-10-21T18:41:39.630Z,54.61
2022-10-21T18:46:43.086Z,54.54
2022-10-21T18:51:45.386Z,54.83
2022-10-21T18:56:48.595Z,54.60
2022-10-21T19:01:50.770Z,54.82
2022-10-21T19:06:54.734Z,54.74
2022-10-21T19:11:56.577Z,54.93
2022-10-21T19:16:58.937Z,54.83
2022-10-21T19:22:00.621Z,54.93
2022-10-21T19:27:02.306Z,55.02
2022-10-21T19:32:04.080Z,55.03
2022-10-21T19:37:06.772Z,54.98
2022-10-21T19:42:08.453Z,55.06
2022-10-21T19:47:10.183Z,55.15
2022-10-21T19:52:11.758Z,55.25
2022-10-21T19:57:13.535Z,55.36
2022-10-21T20:02:15.338Z,55.04
2022-10-21T20:07:16.981Z,55.35
2022-10-21T20:12:19.202Z,55.25
2022-10-21T20:17:20.912Z,55.09
2022-10-21T20:22:24.613Z,55.58
2022-10-21T20:27:26.725Z,55.22
2022-10-21T20:32:28.337Z,55.66
2022-10-21T20:37:30.006Z,55.33
2022-10-21T20:42:31.646Z,55.52
2022-10-21T20:47:33.234Z,55.78
2022-10-21T20:52:34.995Z,55.79
2022-10-21T20:57:40.364Z,55.65
2022-10-21T21:02:42.221Z,55.73
2022-10-21T21:07:43.853Z,55.54
2022-10-21T21:12:45.483Z,55.45
2022-10-21T21:17:51.012Z,55.91
2022-10-21T21:22:52.967Z,56.05
2022-10-21T21:27:54.563Z,56.04
2022-10-21T21:32:56.207Z,55.92
2022-10-21T21:37:58.085Z,55.76
2022-10-21T21:42:59.671Z,55.65
2022-10-21T21:48:01.438Z,56.11
2022-10-21T21:53:03.097Z,56.09
2022-10-21T21:58:05.482Z,55.94
2022-10-21T22:03:07.150Z,55.89
2022-10-21T22:08:10.101Z,56.00
2022-10-21T22:13:12.802Z,55.81
2022-10-21T22:18:14.993Z,55.97
2022-10-21T22:23:17.270Z,55.77
2022-10-21T22:28:18.936Z,56.06
2022-10-21T22:33:21.033Z,56.26
2022-10-21T22:38:23.247Z,55.90
2022-10-21T22:43:26.204Z,55.92
2022-10-21T22:48:27.892Z,55.96
2022-10-21T22:53:29.546Z,55.83
2022-10-21T22:58:31.609Z,55.84
2022-10-21T23:03:33.330Z,55.98
2022-10-21T23:08:35.160Z,55.70
2022-10-21T23:13:36.819Z,55.79
2022-10-21T23:18:38.481Z,56.00
2022-10-21T23:23:40.221Z,56.00
2022-10-21T23:28:42.022Z,56.07
2022-10-21T23:33:43.692Z,56.02
2022-10-21T23:38:45.417Z,55.91
2022-10-21T23:43:47.057Z,56.12
2022-10-21T23:48:48.756Z,55.95
2022-10-21T23:53:50.483Z,56.14
2022-10-21T23:58:52.814Z,56.14
